Portada
METAR-TAF:

METAR-TAF

Aeroports :

Loei, Tailàndia

latitud: 17-27N, longitud: 101-44E, altitud: 253 m

Observació

L'informe es va fer fa 9 hores i 17 minuts, a les 12:00 UTC
Vent 3 kt del Oest
Temperatura 23°C
Humitat 83%
Pressió 1015 hPa
Visibilitat 10 km o més
Escasses núvols a una alçada de 3000 ft

METAR: VTUL 261200Z 27003KT 9999 FEW030 23/20 Q1015 NOSIG

Hora: 04:17 (21:17 UTC)

Pronòstic

L'informe es va fer fa 4 hores i 17 minuts, a les 17:00 UTC
Pronòstic vàlid del 26 a les 18 UTC al 27 a les 18 UTC
Vent 5 kt del Nord/Nord-Est
Visibilitat 10 km o més
Escasses núvols a una alçada de 3000 ft

TAF: VTUL 261700Z 2618/2718 02005KT 9999 FEW030

Observacions i pronòstics meteorològics de més de 4000 aeroports (METAR i TAF).

Les estacions disponibles són els punts grocs i vermells al mapa.

Posi el ratolí al punt desitjat per veure el nom de l'estació.

Feu clic per veure les observacions i els pronòstics meteorològics.

Per canviar el mapa: feu clic els botons verds amb una creu de color negre per apropar; al botó verd amb un guió per allunyar la imatge; o en les fletxes verdes per a mapes adjacents.


METAR-TAF: